This is the latest recevied weather packets stored in our database for station/object K4BHH. If no packets are shown the sender has not sent any weather packets the latest 10 day(s).
| Time | Temp. | Humidity | Pressure | Rain* | Wind** | Luminosity | Snow |
|---|---|---|---|---|---|---|---|
| 1777694675 | 13.33° C | 47% | 1015.6 hPa | 0 mm | - | - | - |
| 1777693473 | 13.89° C | 48% | 1015.6 hPa | 0 mm | - | - | - |
| 1777688064 | 15° C | 56% | 1015.6 hPa | 0 mm | - | - | - |
| 1777683857 | 16.11° C | 62% | 1014.9 hPa | 0 mm | - | - | - |
| 1777683256 | 16.11° C | 65% | 1014.6 hPa | 0 mm | - | - | - |
| 1777679557 | 17.22° C | 62% | 1013.5 hPa | 0 mm | - | - | - |
| 1777674026 | 18.89° C | 51% | 1012.9 hPa | 0 mm | - | - | - |
| 1777658813 | 17.78° C | 49% | 1015.2 hPa | 0 mm | - | - | - |
| 1777657612 | 17.78° C | 47% | 1015.2 hPa | 0 mm | - | - | - |
| 1777656409 | 17.22° C | 51% | 1015.9 hPa | 0 mm | - | - | - |
| 1777655176 | 17.22° C | 55% | 1016.3 hPa | 0 mm | - | - | - |
| 1777652710 | 16.67° C | 53% | 1015.9 hPa | 0 mm | - | - | - |
| 1777649706 | 16.67° C | 60% | 1016.3 hPa | 0 mm | - | - | - |
| 1777647209 | 15° C | 69% | 1015.9 hPa | 0 mm | - | - | - |
| 1777640565 | 10.56° C | 82% | 1015.6 hPa | 0 mm | - | - | - |
| 1777638762 | 10° C | 83% | 1015.9 hPa | 0 mm | - | - | - |
| 1777634467 | 8.33° C | 88% | 1014.6 hPa | 0 mm | - | - | - |
| 1777633835 | 8.33° C | 87% | 1014.2 hPa | 0 mm | - | - | - |
| 1777632032 | 8.89° C | 86% | 1014.2 hPa | 0 mm | - | - | - |
| 1777629026 | 9.44° C | 81% | 1014.2 hPa | 0 mm | - | - | - |
| 1777621152 | 10° C | 80% | 1014.2 hPa | 0 mm | - | - | - |
| 1777619919 | 10.56° C | 77% | 1014.2 hPa | 0 mm | - | - | - |
| 1777618084 | 11.67° C | 72% | 1014.9 hPa | 0 mm | - | - | - |
| 1777617472 | 11.67° C | 72% | 1014.9 hPa | 0 mm | - | - | - |
| 1777615037 | 11.67° C | 75% | 1014.9 hPa | 0 mm | - | - | - |
* Rain latest hour (hover to see other rain measurements)
** Current wind speed in m/s (hover to see current wind gust speed)